sensor_id;sensor_type;location;lat;lon;timestamp;pressure;altitude;pressure_sealevel;temperature;humidity
43125;BME280;49182;50.788;7.318;2022-11-15T00:00:31;100326.97;;;8.89;99.50
43125;BME280;49182;50.788;7.318;2022-11-15T00:03:16;100326.03;;;8.90;99.36
43125;BME280;49182;50.788;7.318;2022-11-15T00:06:03;100304.66;;;8.83;99.17
43125;BME280;49182;50.788;7.318;2022-11-15T00:08:49;100318.28;;;8.88;99.29
43125;BME280;49182;50.788;7.318;2022-11-15T00:11:34;100307.28;;;8.83;99.15
43125;BME280;49182;50.788;7.318;2022-11-15T00:14:20;100310.19;;;8.80;99.22
43125;BME280;49182;50.788;7.318;2022-11-15T00:17:05;100323.47;;;8.79;99.19
43125;BME280;49182;50.788;7.318;2022-11-15T00:19:50;100320.00;;;8.78;99.13
43125;BME280;49182;50.788;7.318;2022-11-15T00:22:35;100320.13;;;8.77;99.00
43125;BME280;49182;50.788;7.318;2022-11-15T00:25:20;100325.16;;;8.80;98.91
43125;BME280;49182;50.788;7.318;2022-11-15T00:28:06;100286.06;;;8.55;98.71
43125;BME280;49182;50.788;7.318;2022-11-15T00:30:53;100323.03;;;8.74;98.92
43125;BME280;49182;50.788;7.318;2022-11-15T00:33:38;100227.69;;;8.19;99.14
43125;BME280;49182;50.788;7.318;2022-11-15T00:36:23;100323.28;;;8.71;99.18
43125;BME280;49182;50.788;7.318;2022-11-15T00:39:08;100317.31;;;8.69;99.51
43125;BME280;49182;50.788;7.318;2022-11-15T00:41:53;100320.78;;;8.69;99.38
43125;BME280;49182;50.788;7.318;2022-11-15T00:44:39;100304.41;;;8.66;99.57
43125;BME280;49182;50.788;7.318;2022-11-15T00:47:26;100323.88;;;8.74;100.00
43125;BME280;49182;50.788;7.318;2022-11-15T00:50:11;100330.94;;;8.74;100.00
43125;BME280;49182;50.788;7.318;2022-11-15T00:52:59;100329.69;;;8.78;100.00
43125;BME280;49182;50.788;7.318;2022-11-15T00:55:46;100326.81;;;8.81;100.00
43125;BME280;49182;50.788;7.318;2022-11-15T00:58:31;100309.88;;;8.74;100.00
43125;BME280;49182;50.788;7.318;2022-11-15T01:01:16;100316.84;;;8.84;100.00
43125;BME280;49182;50.788;7.318;2022-11-15T01:04:03;100322.19;;;8.94;100.00
43125;BME280;49182;50.788;7.318;2022-11-15T01:06:48;100322.75;;;8.98;100.00
43125;BME280;49182;50.788;7.318;2022-11-15T01:09:34;100320.66;;;9.01;100.00
43125;BME280;49182;50.788;7.318;2022-11-15T01:12:19;100325.69;;;9.04;100.00
43125;BME280;49182;50.788;7.318;2022-11-15T01:15:05;100311.28;;;9.08;100.00
43125;BME280;49182;50.788;7.318;2022-11-15T01:17:50;100286.97;;;8.95;100.00
43125;BME280;49182;50.788;7.318;2022-11-15T01:20:40;100309.84;;;9.25;100.00
43125;BME280;49182;50.788;7.318;2022-11-15T01:23:25;100275.78;;;9.03;100.00
43125;BME280;49182;50.788;7.318;2022-11-15T01:26:13;100302.91;;;9.24;100.00
43125;BME280;49182;50.788;7.318;2022-11-15T01:28:58;100271.78;;;9.08;100.00
43125;BME280;49182;50.788;7.318;2022-11-15T01:31:44;100255.94;;;8.99;100.00
43125;BME280;49182;50.788;7.318;2022-11-15T01:34:29;100292.78;;;9.29;100.00
43125;BME280;49182;50.788;7.318;2022-11-15T01:37:16;100289.06;;;9.31;100.00
43125;BME280;49182;50.788;7.318;2022-11-15T01:40:01;100292.97;;;9.37;100.00
43125;BME280;49182;50.788;7.318;2022-11-15T01:42:46;100288.66;;;9.46;100.00
43125;BME280;49182;50.788;7.318;2022-11-15T01:45:31;100295.19;;;9.51;100.00
43125;BME280;49182;50.788;7.318;2022-11-15T01:48:16;100284.56;;;9.62;100.00
43125;BME280;49182;50.788;7.318;2022-11-15T01:51:06;100282.91;;;9.61;100.00
43125;BME280;49182;50.788;7.318;2022-11-15T01:53:56;100280.09;;;9.63;100.00
43125;BME280;49182;50.788;7.318;2022-11-15T01:56:45;100278.28;;;9.63;100.00
43125;BME280;49182;50.788;7.318;2022-11-15T01:59:32;100276.91;;;9.69;100.00
43125;BME280;49182;50.788;7.318;2022-11-15T02:02:18;100277.63;;;9.71;100.00
43125;BME280;49182;50.788;7.318;2022-11-15T02:05:04;100272.34;;;9.71;100.00
43125;BME280;49182;50.788;7.318;2022-11-15T02:07:49;100237.94;;;9.53;100.00
43125;BME280;49182;50.788;7.318;2022-11-15T02:10:36;100269.28;;;9.75;100.00
43125;BME280;49182;50.788;7.318;2022-11-15T02:13:21;100269.03;;;9.79;100.00
43125;BME280;49182;50.788;7.318;2022-11-15T02:16:13;100240.00;;;9.69;100.00
43125;BME280;49182;50.788;7.318;2022-11-15T02:19:11;100255.28;;;9.85;100.00
43125;BME280;49182;50.788;7.318;2022-11-15T02:22:05;100251.41;;;9.89;100.00
43125;BME280;49182;50.788;7.318;2022-11-15T02:25:18;100245.16;;;9.90;100.00
43125;BME280;49182;50.788;7.318;2022-11-15T02:28:40;100240.47;;;9.93;100.00
43125;BME280;49182;50.788;7.318;2022-11-15T02:31:35;100250.28;;;10.01;100.00
43125;BME280;49182;50.788;7.318;2022-11-15T02:34:28;100251.53;;;10.06;100.00
43125;BME280;49182;50.788;7.318;2022-11-15T02:37:29;100223.25;;;9.99;100.00
43125;BME280;49182;50.788;7.318;2022-11-15T02:40:23;100244.72;;;10.13;100.00
43125;BME280;49182;50.788;7.318;2022-11-15T02:43:13;100240.47;;;10.22;100.00
43125;BME280;49182;50.788;7.318;2022-11-15T02:46:07;100237.81;;;10.22;100.00
43125;BME280;49182;50.788;7.318;2022-11-15T02:48:55;100229.06;;;10.22;100.00
43125;BME280;49182;50.788;7.318;2022-11-15T02:51:42;100229.59;;;10.35;100.00
43125;BME280;49182;50.788;7.318;2022-11-15T02:54:30;100218.91;;;10.36;100.00
43125;BME280;49182;50.788;7.318;2022-11-15T02:57:19;100233.75;;;10.47;100.00
43125;BME280;49182;50.788;7.318;2022-11-15T03:00:08;100217.91;;;10.47;100.00
43125;BME280;49182;50.788;7.318;2022-11-15T03:03:09;100226.66;;;10.47;100.00
43125;BME280;49182;50.788;7.318;2022-11-15T03:06:11;100216.09;;;10.47;100.00
43125;BME280;49182;50.788;7.318;2022-11-15T03:09:04;100216.53;;;10.43;100.00
43125;BME280;49182;50.788;7.318;2022-11-15T03:11:55;100219.41;;;10.49;100.00
43125;BME280;49182;50.788;7.318;2022-11-15T03:14:49;100212.50;;;10.48;100.00
43125;BME280;49182;50.788;7.318;2022-11-15T03:17:38;100217.19;;;10.54;100.00
43125;BME280;49182;50.788;7.318;2022-11-15T03:20:26;100211.75;;;10.56;100.00
43125;BME280;49182;50.788;7.318;2022-11-15T03:23:14;100188.47;;;10.42;100.00
43125;BME280;49182;50.788;7.318;2022-11-15T03:26:00;100218.56;;;10.59;100.00
43125;BME280;49182;50.788;7.318;2022-11-15T03:28:49;100200.25;;;10.47;100.00
43125;BME280;49182;50.788;7.318;2022-11-15T03:31:38;100215.47;;;10.73;100.00
43125;BME280;49182;50.788;7.318;2022-11-15T03:34:36;100217.41;;;10.71;100.00
43125;BME280;49182;50.788;7.318;2022-11-15T03:37:26;100207.09;;;10.77;100.00
43125;BME280;49182;50.788;7.318;2022-11-15T03:40:16;100211.22;;;10.89;100.00
43125;BME280;49182;50.788;7.318;2022-11-15T03:43:04;100202.00;;;10.93;100.00
43125;BME280;49182;50.788;7.318;2022-11-15T03:45:55;100206.56;;;11.01;100.00
43125;BME280;49182;50.788;7.318;2022-11-15T03:48:44;100206.56;;;11.01;100.00
43125;BME280;49182;50.788;7.318;2022-11-15T03:51:32;100209.75;;;11.05;100.00
43125;BME280;49182;50.788;7.318;2022-11-15T03:54:17;100210.03;;;11.29;100.00
43125;BME280;49182;50.788;7.318;2022-11-15T03:57:04;100211.41;;;11.33;100.00
43125;BME280;49182;50.788;7.318;2022-11-15T03:59:49;100213.72;;;11.36;100.00
43125;BME280;49182;50.788;7.318;2022-11-15T04:02:34;100137.50;;;10.96;99.61
43125;BME280;49182;50.788;7.318;2022-11-15T04:05:19;100207.94;;;11.50;98.76
43125;BME280;49182;50.788;7.318;2022-11-15T04:08:04;100146.81;;;11.18;99.26
43125;BME280;49182;50.788;7.318;2022-11-15T04:10:49;100198.19;;;11.51;99.04
43125;BME280;49182;50.788;7.318;2022-11-15T04:13:36;100194.94;;;11.57;98.86
43125;BME280;49182;50.788;7.318;2022-11-15T04:16:21;100090.19;;;10.85;98.82
43125;BME280;49182;50.788;7.318;2022-11-15T04:19:06;100194.44;;;11.53;98.94
43125;BME280;49182;50.788;7.318;2022-11-15T04:21:51;100191.00;;;11.61;98.57
43125;BME280;49182;50.788;7.318;2022-11-15T04:24:36;100190.84;;;11.62;98.03
43125;BME280;49182;50.788;7.318;2022-11-15T04:27:21;100189.38;;;11.60;97.70
43125;BME280;49182;50.788;7.318;2022-11-15T04:30:09;100187.69;;;11.59;97.25
43125;BME280;49182;50.788;7.318;2022-11-15T04:32:54;100187.00;;;11.57;96.77
43125;BME280;49182;50.788;7.318;2022-11-15T04:35:39;100185.94;;;11.50;97.07
43125;BME280;49182;50.788;7.318;2022-11-15T04:38:24;100186.88;;;11.58;96.50
43125;BME280;49182;50.788;7.318;2022-11-15T04:41:09;100175.47;;;11.40;96.80
43125;BME280;49182;50.788;7.318;2022-11-15T04:43:54;100194.09;;;11.39;96.97
43125;BME280;49182;50.788;7.318;2022-11-15T04:46:41;100128.38;;;10.90;97.21
43125;BME280;49182;50.788;7.318;2022-11-15T04:49:26;100196.81;;;11.29;97.34
43125;BME280;49182;50.788;7.318;2022-11-15T04:52:11;100196.75;;;11.39;97.71
43125;BME280;49182;50.788;7.318;2022-11-15T04:54:56;100207.09;;;11.50;97.41
43125;BME280;49182;50.788;7.318;2022-11-15T04:57:41;100193.72;;;11.51;97.52
43125;BME280;49182;50.788;7.318;2022-11-15T05:00:28;100177.34;;;11.48;96.73
43125;BME280;49182;50.788;7.318;2022-11-15T05:03:14;100182.84;;;11.54;96.91
43125;BME280;49182;50.788;7.318;2022-11-15T05:05:59;100192.44;;;11.55;97.62
43125;BME280;49182;50.788;7.318;2022-11-15T05:08:45;100178.69;;;11.34;97.86
43125;BME280;49182;50.788;7.318;2022-11-15T05:11:30;100202.13;;;11.47;97.86
43125;BME280;49182;50.788;7.318;2022-11-15T05:14:15;100190.34;;;11.41;97.97
43125;BME280;49182;50.788;7.318;2022-11-15T05:17:00;100193.50;;;11.45;98.22
43125;BME280;49182;50.788;7.318;2022-11-15T05:19:47;100198.72;;;11.54;97.68
43125;BME280;49182;50.788;7.318;2022-11-15T05:22:32;100200.13;;;11.49;97.87
43125;BME280;49182;50.788;7.318;2022-11-15T05:25:17;100206.44;;;11.48;98.07
43125;BME280;49182;50.788;7.318;2022-11-15T05:28:03;100191.84;;;11.44;98.59
43125;BME280;49182;50.788;7.318;2022-11-15T05:30:48;100178.25;;;11.39;97.95
43125;BME280;49182;50.788;7.318;2022-11-15T05:33:33;100189.34;;;11.42;97.76
43125;BME280;49182;50.788;7.318;2022-11-15T05:36:25;100198.34;;;11.49;97.85
43125;BME280;49182;50.788;7.318;2022-11-15T05:39:12;100193.03;;;11.49;97.80
43125;BME280;49182;50.788;7.318;2022-11-15T05:42:00;100181.56;;;11.41;97.24
43125;BME280;49182;50.788;7.318;2022-11-15T05:44:48;100194.47;;;11.44;96.76
43125;BME280;49182;50.788;7.318;2022-11-15T05:47:35;100187.47;;;11.34;97.20
43125;BME280;49182;50.788;7.318;2022-11-15T05:50:22;100176.88;;;11.17;96.87
43125;BME280;49182;50.788;7.318;2022-11-15T05:53:10;100190.59;;;11.20;96.92
43125;BME280;49182;50.788;7.318;2022-11-15T05:55:57;100201.91;;;11.13;96.60
43125;BME280;49182;50.788;7.318;2022-11-15T05:58:43;100192.91;;;11.06;96.83
43125;BME280;49182;50.788;7.318;2022-11-15T06:01:28;100198.19;;;11.06;96.03
43125;BME280;49182;50.788;7.318;2022-11-15T06:04:13;100188.53;;;10.97;96.05
43125;BME280;49182;50.788;7.318;2022-11-15T06:06:58;100198.28;;;10.86;96.04
43125;BME280;49182;50.788;7.318;2022-11-15T06:09:45;100209.03;;;10.75;95.78
43125;BME280;49182;50.788;7.318;2022-11-15T06:12:30;100203.25;;;10.62;96.22
43125;BME280;49182;50.788;7.318;2022-11-15T06:15:16;100218.56;;;10.59;95.69
43125;BME280;49182;50.788;7.318;2022-11-15T06:18:01;100221.91;;;10.51;95.26
43125;BME280;49182;50.788;7.318;2022-11-15T06:20:47;100213.78;;;10.35;95.54
43125;BME280;49182;50.788;7.318;2022-11-15T06:23:33;100227.66;;;10.27;95.75
43125;BME280;49182;50.788;7.318;2022-11-15T06:26:20;100213.25;;;10.12;95.77
43125;BME280;49182;50.788;7.318;2022-11-15T06:29:05;100222.81;;;10.03;96.24
43125;BME280;49182;50.788;7.318;2022-11-15T06:31:50;100233.63;;;10.00;96.49
43125;BME280;49182;50.788;7.318;2022-11-15T06:34:35;100244.06;;;9.92;96.76
43125;BME280;49182;50.788;7.318;2022-11-15T06:37:20;100247.78;;;9.90;97.04
43125;BME280;49182;50.788;7.318;2022-11-15T06:40:07;100242.13;;;9.85;97.36
43125;BME280;49182;50.788;7.318;2022-11-15T06:42:58;100239.59;;;9.83;97.38
43125;BME280;49182;50.788;7.318;2022-11-15T06:45:44;100243.22;;;9.82;97.32
43125;BME280;49182;50.788;7.318;2022-11-15T06:48:29;100239.34;;;9.67;97.50
43125;BME280;49182;50.788;7.318;2022-11-15T06:51:15;100255.41;;;9.64;97.48
43125;BME280;49182;50.788;7.318;2022-11-15T06:54:00;100254.16;;;9.58;97.90
43125;BME280;49182;50.788;7.318;2022-11-15T06:56:45;100256.09;;;9.47;98.02
43125;BME280;49182;50.788;7.318;2022-11-15T06:59:32;100206.94;;;9.07;98.36
43125;BME280;49182;50.788;7.318;2022-11-15T07:02:24;100250.09;;;9.35;98.83
43125;BME280;49182;50.788;7.318;2022-11-15T07:05:09;100246.22;;;9.29;98.95
43125;BME280;49182;50.788;7.318;2022-11-15T07:07:56;100237.47;;;9.19;99.52
43125;BME280;49182;50.788;7.318;2022-11-15T07:10:41;100220.09;;;9.07;99.35
43125;BME280;49182;50.788;7.318;2022-11-15T07:13:26;100210.19;;;8.90;99.03
43125;BME280;49182;50.788;7.318;2022-11-15T07:16:13;100247.53;;;9.05;99.05
43125;BME280;49182;50.788;7.318;2022-11-15T07:18:58;100259.41;;;8.99;99.37
43125;BME280;49182;50.788;7.318;2022-11-15T07:21:44;100249.13;;;8.96;99.58
43125;BME280;49182;50.788;7.318;2022-11-15T07:24:29;100245.81;;;8.94;99.84
43125;BME280;49182;50.788;7.318;2022-11-15T07:27:14;100235.94;;;8.86;99.56
43125;BME280;49182;50.788;7.318;2022-11-15T07:29:59;100256.72;;;8.89;99.82
43125;BME280;49182;50.788;7.318;2022-11-15T07:32:46;100258.25;;;8.82;99.68
43125;BME280;49182;50.788;7.318;2022-11-15T07:35:31;100262.94;;;8.79;99.94
43125;BME280;49182;50.788;7.318;2022-11-15T07:38:17;100264.72;;;8.78;99.72
43125;BME280;49182;50.788;7.318;2022-11-15T07:41:03;100270.38;;;8.74;99.72
43125;BME280;49182;50.788;7.318;2022-11-15T07:43:51;100250.38;;;8.62;99.86
43125;BME280;49182;50.788;7.318;2022-11-15T07:46:36;100267.03;;;8.72;100.00
43125;BME280;49182;50.788;7.318;2022-11-15T07:49:22;100255.38;;;8.65;100.00
43125;BME280;49182;50.788;7.318;2022-11-15T07:52:07;100264.69;;;8.69;100.00
43125;BME280;49182;50.788;7.318;2022-11-15T07:54:53;100263.72;;;8.70;100.00
43125;BME280;49182;50.788;7.318;2022-11-15T07:57:38;100247.03;;;8.60;100.00
43125;BME280;49182;50.788;7.318;2022-11-15T08:00:23;100258.00;;;8.65;100.00
43125;BME280;49182;50.788;7.318;2022-11-15T08:03:10;100269.13;;;8.68;100.00
43125;BME280;49182;50.788;7.318;2022-11-15T08:05:56;100262.63;;;8.72;100.00
43125;BME280;49182;50.788;7.318;2022-11-15T08:08:41;100257.34;;;8.72;100.00
43125;BME280;49182;50.788;7.318;2022-11-15T08:11:26;100257.53;;;8.80;100.00
43125;BME280;49182;50.788;7.318;2022-11-15T08:14:12;100255.03;;;8.79;100.00
43125;BME280;49182;50.788;7.318;2022-11-15T08:16:56;100261.56;;;8.84;100.00
43125;BME280;49182;50.788;7.318;2022-11-15T08:19:42;100247.03;;;8.90;100.00
43125;BME280;49182;50.788;7.318;2022-11-15T08:22:28;100231.34;;;8.79;100.00
43125;BME280;49182;50.788;7.318;2022-11-15T08:25:13;100240.03;;;9.00;100.00
43125;BME280;49182;50.788;7.318;2022-11-15T08:28:00;100244.31;;;9.01;100.00
43125;BME280;49182;50.788;7.318;2022-11-15T08:30:46;100210.88;;;8.92;100.00
43125;BME280;49182;50.788;7.318;2022-11-15T08:33:32;100219.94;;;8.99;100.00
43125;BME280;49182;50.788;7.318;2022-11-15T08:36:18;100240.34;;;9.16;100.00
43125;BME280;49182;50.788;7.318;2022-11-15T08:39:04;100239.69;;;9.24;100.00
43125;BME280;49182;50.788;7.318;2022-11-15T08:41:50;100232.75;;;9.32;100.00
43125;BME280;49182;50.788;7.318;2022-11-15T08:44:35;100235.97;;;9.36;100.00
43125;BME280;49182;50.788;7.318;2022-11-15T08:47:20;100234.16;;;9.46;100.00
43125;BME280;49182;50.788;7.318;2022-11-15T08:50:06;100220.03;;;9.47;100.00
43125;BME280;49182;50.788;7.318;2022-11-15T08:52:51;100185.91;;;9.46;100.00
43125;BME280;49182;50.788;7.318;2022-11-15T08:55:39;100218.13;;;9.68;100.00
43125;BME280;49182;50.788;7.318;2022-11-15T08:58:25;100212.00;;;9.78;100.00
43125;BME280;49182;50.788;7.318;2022-11-15T09:01:15;100214.91;;;9.84;100.00
43125;BME280;49182;50.788;7.318;2022-11-15T09:04:03;100204.22;;;9.95;100.00
43125;BME280;49182;50.788;7.318;2022-11-15T09:06:48;100180.38;;;9.87;100.00
43125;BME280;49182;50.788;7.318;2022-11-15T09:09:33;100206.69;;;10.16;100.00
43125;BME280;49182;50.788;7.318;2022-11-15T09:12:19;100207.09;;;10.31;100.00
43125;BME280;49182;50.788;7.318;2022-11-15T09:15:06;100186.28;;;10.28;100.00
43125;BME280;49182;50.788;7.318;2022-11-15T09:17:51;100204.28;;;10.51;100.00
43125;BME280;49182;50.788;7.318;2022-11-15T09:20:36;100174.78;;;10.56;99.96
43125;BME280;49182;50.788;7.318;2022-11-15T09:23:22;100191.91;;;10.89;96.94
43125;BME280;49182;50.788;7.318;2022-11-15T09:26:07;100183.47;;;11.03;91.34
43125;BME280;49182;50.788;7.318;2022-11-15T09:28:54;100187.13;;;11.20;88.91
43125;BME280;49182;50.788;7.318;2022-11-15T09:31:39;100196.06;;;11.36;88.47
43125;BME280;49182;50.788;7.318;2022-11-15T09:34:24;100203.47;;;11.51;86.25
43125;BME280;49182;50.788;7.318;2022-11-15T09:37:09;100202.97;;;11.65;85.49
43125;BME280;49182;50.788;7.318;2022-11-15T09:39:54;100189.00;;;11.72;80.92
43125;BME280;49182;50.788;7.318;2022-11-15T09:42:52;100200.78;;;11.96;78.88
43125;BME280;49182;50.788;7.318;2022-11-15T09:45:50;100205.81;;;12.07;79.64
43125;BME280;49182;50.788;7.318;2022-11-15T09:48:50;100197.97;;;12.15;81.19
43125;BME280;49182;50.788;7.318;2022-11-15T09:51:34;100196.72;;;12.27;79.96
43125;BME280;49182;50.788;7.318;2022-11-15T09:54:08;100194.50;;;12.40;77.14
43125;BME280;49182;50.788;7.318;2022-11-15T09:57:04;100188.28;;;12.57;76.00
43125;BME280;49182;50.788;7.318;2022-11-15T09:59:55;100164.13;;;12.61;72.46
43125;BME280;49182;50.788;7.318;2022-11-15T10:02:50;100171.16;;;12.78;71.79
43125;BME280;49182;50.788;7.318;2022-11-15T10:05:20;100170.00;;;12.80;71.88
43125;BME280;49182;50.788;7.318;2022-11-15T10:07:54;100167.22;;;12.82;72.58
43125;BME280;49182;50.788;7.318;2022-11-15T10:10:27;100119.44;;;12.66;71.95
43125;BME280;49182;50.788;7.318;2022-11-15T10:12:56;100098.09;;;12.67;69.73
43125;BME280;49182;50.788;7.318;2022-11-15T10:15:23;100146.75;;;13.00;70.84
43125;BME280;49182;50.788;7.318;2022-11-15T10:18:05;100142.75;;;13.04;69.39
43125;BME280;49182;50.788;7.318;2022-11-15T10:20:41;100141.50;;;13.16;66.90
43125;BME280;49182;50.788;7.318;2022-11-15T10:23:11;100138.16;;;13.06;67.93
43125;BME280;49182;50.788;7.318;2022-11-15T10:25:39;100121.31;;;13.23;65.41
43125;BME280;49182;50.788;7.318;2022-11-15T10:28:12;100117.00;;;13.22;67.09
43125;BME280;49182;50.788;7.318;2022-11-15T10:30:42;100124.97;;;13.39;66.57
43125;BME280;49182;50.788;7.318;2022-11-15T10:33:17;100115.03;;;13.32;65.70
43125;BME280;49182;50.788;7.318;2022-11-15T10:35:46;100088.66;;;13.23;64.24
43125;BME280;49182;50.788;7.318;2022-11-15T10:38:12;100131.28;;;13.54;65.28
43125;BME280;49182;50.788;7.318;2022-11-15T10:40:41;100127.63;;;13.71;62.51
43125;BME280;49182;50.788;7.318;2022-11-15T10:43:15;100126.63;;;13.72;62.67
43125;BME280;49182;50.788;7.318;2022-11-15T10:45:42;100112.38;;;13.73;63.66
43125;BME280;49182;50.788;7.318;2022-11-15T10:48:21;100114.19;;;13.89;62.91
43125;BME280;49182;50.788;7.318;2022-11-15T10:50:50;100112.19;;;13.99;62.58
43125;BME280;49182;50.788;7.318;2022-11-15T10:53:23;100098.75;;;14.00;63.81
43125;BME280;49182;50.788;7.318;2022-11-15T10:55:53;100096.06;;;14.16;62.20
43125;BME280;49182;50.788;7.318;2022-11-15T10:58:24;100094.56;;;14.14;61.30
43125;BME280;49182;50.788;7.318;2022-11-15T11:00:55;100098.34;;;14.28;60.99
43125;BME280;49182;50.788;7.318;2022-11-15T11:03:28;100090.19;;;14.45;62.57
43125;BME280;49182;50.788;7.318;2022-11-15T11:06:08;100086.97;;;14.58;60.64
43125;BME280;49182;50.788;7.318;2022-11-15T11:08:35;100086.28;;;14.64;60.50
43125;BME280;49182;50.788;7.318;2022-11-15T11:11:03;100085.44;;;14.64;59.76
43125;BME280;49182;50.788;7.318;2022-11-15T11:13:32;100089.44;;;14.68;61.18
43125;BME280;49182;50.788;7.318;2022-11-15T11:16:20;100089.88;;;14.79;59.64
43125;BME280;49182;50.788;7.318;2022-11-15T11:18:56;100079.25;;;14.79;60.60
43125;BME280;49182;50.788;7.318;2022-11-15T11:21:32;100057.06;;;14.64;60.63
43125;BME280;49182;50.788;7.318;2022-11-15T11:24:10;100070.63;;;14.69;59.27
43125;BME280;49182;50.788;7.318;2022-11-15T11:26:42;100068.22;;;14.60;59.18
43125;BME280;49182;50.788;7.318;2022-11-15T11:29:25;100068.59;;;14.48;59.13
43125;BME280;49182;50.788;7.318;2022-11-15T11:32:01;100059.00;;;14.31;60.78
43125;BME280;49182;50.788;7.318;2022-11-15T11:34:40;100060.84;;;14.23;60.66
43125;BME280;49182;50.788;7.318;2022-11-15T11:37:14;100033.25;;;13.93;60.06
43125;BME280;49182;50.788;7.318;2022-11-15T11:39:52;100059.25;;;14.05;61.87
43125;BME280;49182;50.788;7.318;2022-11-15T11:42:31;100058.06;;;14.08;62.13
43125;BME280;49182;50.788;7.318;2022-11-15T11:45:15;100059.41;;;14.12;62.06
43125;BME280;49182;50.788;7.318;2022-11-15T11:47:47;100054.25;;;14.10;61.17
43125;BME280;49182;50.788;7.318;2022-11-15T11:50:18;100044.16;;;14.06;62.23
43125;BME280;49182;50.788;7.318;2022-11-15T11:52:54;100047.59;;;14.23;61.87
43125;BME280;49182;50.788;7.318;2022-11-15T11:55:33;100048.56;;;14.30;61.35
43125;BME280;49182;50.788;7.318;2022-11-15T11:58:09;100043.72;;;14.33;61.43
43125;BME280;49182;50.788;7.318;2022-11-15T12:00:40;100034.91;;;14.33;61.32
43125;BME280;49182;50.788;7.318;2022-11-15T12:03:11;100028.13;;;14.38;61.96
43125;BME280;49182;50.788;7.318;2022-11-15T12:05:43;100028.63;;;14.42;62.40
43125;BME280;49182;50.788;7.318;2022-11-15T12:08:27;100020.94;;;14.47;62.37
43125;BME280;49182;50.788;7.318;2022-11-15T12:11:03;100023.97;;;14.36;62.49
43125;BME280;49182;50.788;7.318;2022-11-15T12:13:33;100021.34;;;14.28;63.11
43125;BME280;49182;50.788;7.318;2022-11-15T12:16:05;100029.81;;;14.31;63.76
43125;BME280;49182;50.788;7.318;2022-11-15T12:18:36;100015.50;;;14.32;63.80
43125;BME280;49182;50.788;7.318;2022-11-15T12:21:07;100015.66;;;14.39;63.25
43125;BME280;49182;50.788;7.318;2022-11-15T12:23:43;100009.19;;;14.41;63.68
43125;BME280;49182;50.788;7.318;2022-11-15T12:26:17;100017.50;;;14.38;62.45
43125;BME280;49182;50.788;7.318;2022-11-15T12:28:48;99994.06;;;14.50;61.16
43125;BME280;49182;50.788;7.318;2022-11-15T12:31:37;99993.84;;;14.51;61.32
43125;BME280;49182;50.788;7.318;2022-11-15T12:34:13;99994.97;;;14.57;60.83
43125;BME280;49182;50.788;7.318;2022-11-15T12:36:44;99984.34;;;14.57;60.51
43125;BME280;49182;50.788;7.318;2022-11-15T12:39:11;99985.31;;;14.64;61.14
43125;BME280;49182;50.788;7.318;2022-11-15T12:41:39;99988.09;;;14.71;61.68
43125;BME280;49182;50.788;7.318;2022-11-15T12:44:10;99974.97;;;14.69;60.46
43125;BME280;49182;50.788;7.318;2022-11-15T12:49:42;99973.28;;;14.76;60.41
43125;BME280;49182;50.788;7.318;2022-11-15T12:52:10;99962.31;;;14.79;60.47
43125;BME280;49182;50.788;7.318;2022-11-15T12:54:55;99947.81;;;14.82;59.48
43125;BME280;49182;50.788;7.318;2022-11-15T12:57:32;99948.72;;;14.74;60.17
43125;BME280;49182;50.788;7.318;2022-11-15T13:00:00;99945.03;;;14.75;60.01
43125;BME280;49182;50.788;7.318;2022-11-15T13:02:29;99932.56;;;14.76;61.19
43125;BME280;49182;50.788;7.318;2022-11-15T13:08:03;99921.03;;;14.69;60.68
43125;BME280;49182;50.788;7.318;2022-11-15T13:10:32;99929.09;;;14.75;60.79
43125;BME280;49182;50.788;7.318;2022-11-15T13:13:00;99931.34;;;14.64;61.32
43125;BME280;49182;50.788;7.318;2022-11-15T13:15:54;99909.09;;;14.65;61.27
43125;BME280;49182;50.788;7.318;2022-11-15T13:18:30;99907.97;;;14.59;61.08
43125;BME280;49182;50.788;7.318;2022-11-15T13:20:59;99900.53;;;14.54;61.48
43125;BME280;49182;50.788;7.318;2022-11-15T13:23:30;99902.41;;;14.46;61.59
43125;BME280;49182;50.788;7.318;2022-11-15T13:26:10;99899.47;;;14.41;61.89
43125;BME280;49182;50.788;7.318;2022-11-15T13:28:42;99894.16;;;14.33;62.49
43125;BME280;49182;50.788;7.318;2022-11-15T13:31:16;99892.03;;;14.28;63.30
43125;BME280;49182;50.788;7.318;2022-11-15T13:33:45;99885.06;;;14.27;63.84
43125;BME280;49182;50.788;7.318;2022-11-15T13:36:15;99881.25;;;14.30;63.92
43125;BME280;49182;50.788;7.318;2022-11-15T13:38:43;99871.53;;;14.45;62.28
43125;BME280;49182;50.788;7.318;2022-11-15T13:41:17;99879.38;;;14.38;63.04
43125;BME280;49182;50.788;7.318;2022-11-15T13:43:44;99873.19;;;14.46;62.17
43125;BME280;49182;50.788;7.318;2022-11-15T13:46:13;99852.22;;;14.28;62.73
43125;BME280;49182;50.788;7.318;2022-11-15T13:48:40;99867.75;;;14.39;62.92
43125;BME280;49182;50.788;7.318;2022-11-15T13:51:15;99857.78;;;14.41;63.19
43125;BME280;49182;50.788;7.318;2022-11-15T13:53:46;99851.66;;;14.41;62.35
43125;BME280;49182;50.788;7.318;2022-11-15T13:56:15;99846.34;;;14.41;62.24
43125;BME280;49182;50.788;7.318;2022-11-15T13:58:43;99845.03;;;14.37;62.33
43125;BME280;49182;50.788;7.318;2022-11-15T14:01:15;99838.06;;;14.36;62.64
43125;BME280;49182;50.788;7.318;2022-11-15T14:03:48;99833.28;;;14.31;62.87
43125;BME280;49182;50.788;7.318;2022-11-15T14:06:19;99838.22;;;14.34;62.11
43125;BME280;49182;50.788;7.318;2022-11-15T14:09:02;99819.78;;;14.41;61.95
43125;BME280;49182;50.788;7.318;2022-11-15T14:11:29;99807.56;;;14.32;62.70
43125;BME280;49182;50.788;7.318;2022-11-15T14:14:13;99815.22;;;14.27;62.98
43125;BME280;49182;50.788;7.318;2022-11-15T14:16:42;99811.56;;;14.28;63.33
43125;BME280;49182;50.788;7.318;2022-11-15T14:19:11;99807.34;;;14.33;62.89